KTDZ/TDZ METAR and TAF weather

Enter ICAO airport designator
Station Type Date Time Source
KTDZ METAR 2019/10/15 21:53 UTC NOAA

KTDZ 152153Z AUTO 17009KT 10SM FEW100 20/03 A2979 RMK AO2 SLP088 T02000033


Station Type Date Time Source
KTDZ Decoded METAR 2019/10/15 21:53 UTC NOAA

TOLEDO METCALF FIELD, OH, United States (KTDZ) 41-34N 83-29W 189M
Oct 15, 2019 - 05:53 PM EDT / 2019.10.15 2153 UTC
Wind: from the S (170 degrees) at 10 MPH (9 KT):0
Visibility: 10 mile(s):0
Sky conditions: mostly clear
Temperature: 68.0 F (20.0 C)
Dew Point: 37.9 F (3.3 C)
Relative Humidity: 33%
Pressure (altimeter): 29.79 in. Hg (1008 hPa)
ob: KTDZ 152153Z AUTO 17009KT 10SM FEW100 20/03 A2979 RMK AO2 SLP088 T02000033
cycle: 22

Station Type Date Time Source
KTDZ TAF UTC NOAA

Error!

Example: see airport list